Time;durP1;ratioP1;P1;durP2;ratioP2;P2;SDS_P1;SDS_P2;PMS_P1;PMS_P2;Temp;Humidity;BMP_temperature;BMP_pressure;BME280_temperature;BME280_humidity;BME280_pressure;Samples;Min_cycle;Max_cycle;Signal;HPM_P1;HPM_P2
2022/07/16 00:01:24;;;;;;;0.50;0.20;;;21.90;52.50;;;;;;5092754;28;20036;-76
2022/07/16 00:03:54;;;;;;;1.48;0.20;;;21.90;52.50;;;;;;5092663;28;20458;-76
2022/07/16 00:06:21;;;;;;;0.57;0.10;;;21.90;52.60;;;;;;5092810;28;20040;-76
2022/07/16 00:08:46;;;;;;;0.75;0.10;;;21.90;52.60;;;;;;5092697;28;20043;-76
2022/07/16 00:11:12;;;;;;;0.30;0.10;;;21.90;52.60;;;;;;5092560;28;20031;-76
2022/07/16 00:13:39;;;;;;;0.85;0.20;;;21.90;52.60;;;;;;5091182;28;20395;-76
2022/07/16 00:16:09;;;;;;;0.50;0.20;;;21.90;52.60;;;;;;5091314;28;20486;-77
2022/07/16 00:21:25;;;;;;;1.38;0.30;;;21.90;52.60;;;;;;5091215;28;20056;-75
2022/07/16 00:23:51;;;;;;;0.60;0.20;;;21.90;52.60;;;;;;5092404;28;20093;-76
2022/07/16 00:26:18;;;;;;;0.50;0.30;;;21.90;52.60;;;;;;5091091;28;20122;-76
2022/07/16 00:28:45;;;;;;;1.38;0.13;;;21.90;52.60;;;;;;5091655;28;20553;-76
2022/07/16 00:31:10;;;;;;;0.50;0.20;;;21.90;52.60;;;;;;5092253;28;20046;-76
2022/07/16 00:33:36;;;;;;;1.58;0.20;;;21.90;52.70;;;;;;5090989;28;20402;-77
2022/07/16 00:36:03;;;;;;;1.48;0.20;;;21.90;52.60;;;;;;5091227;28;20040;-77
2022/07/16 00:38:28;;;;;;;0.50;0.15;;;21.90;52.70;;;;;;5107951;28;20067;-76
2022/07/16 00:40:54;;;;;;;1.13;0.20;;;21.90;52.70;;;;;;5091140;28;20109;-76
2022/07/16 00:43:20;;;;;;;0.43;0.10;;;21.90;52.70;;;;;;5092353;28;20040;-76
2022/07/16 00:45:48;;;;;;;0.80;0.20;;;21.90;52.70;;;;;;5090786;28;20040;-76
2022/07/16 00:48:14;;;;;;;0.55;0.10;;;21.90;52.70;;;;;;5090791;28;20051;-76
2022/07/16 00:50:40;;;;;;;0.80;0.20;;;21.90;52.70;;;;;;5091185;28;20048;-76
2022/07/16 00:53:08;;;;;;;0.40;0.20;;;21.90;52.70;;;;;;5090397;28;20056;-77
2022/07/16 00:55:35;;;;;;;1.77;0.30;;;21.90;52.80;;;;;;5090756;28;20051;-76
2022/07/16 00:58:01;;;;;;;0.55;0.20;;;21.80;52.70;;;;;;5090816;28;20395;-77
2022/07/16 01:00:29;;;;;;;0.43;0.20;;;21.90;52.80;;;;;;5090596;28;20043;-76
2022/07/16 01:02:54;;;;;;;0.98;0.38;;;21.80;52.70;;;;;;5091875;28;20553;-76
2022/07/16 01:05:20;;;;;;;0.30;0.13;;;21.80;52.70;;;;;;5090912;28;20047;-76
2022/07/16 01:07:46;;;;;;;0.85;0.20;;;21.80;52.70;;;;;;5090556;28;20400;-76
2022/07/16 01:10:13;;;;;;;0.50;0.10;;;21.80;52.70;;;;;;5090606;28;20093;-76
2022/07/16 01:12:39;;;;;;;0.50;0.20;;;21.80;52.80;;;;;;5090601;28;20081;-76
2022/07/16 01:15:05;;;;;;;1.10;0.20;;;21.80;52.80;;;;;;5090398;28;20115;-76
2022/07/16 01:17:31;;;;;;;0.80;0.30;;;21.80;52.80;;;;;;5090441;28;20514;-76
2022/07/16 01:19:57;;;;;;;0.80;0.20;;;21.80;52.80;;;;;;5090570;28;20040;-76
2022/07/16 01:22:25;;;;;;;0.57;0.20;;;21.80;52.80;;;;;;5090726;28;20048;-78
2022/07/16 01:24:52;;;;;;;0.75;0.20;;;21.80;52.80;;;;;;5090730;28;20050;-76
2022/07/16 01:27:19;;;;;;;0.30;0.20;;;21.80;52.90;;;;;;5090517;28;20039;-76
2022/07/16 01:29:45;;;;;;;0.55;0.20;;;21.80;52.80;;;;;;5090353;28;20066;-76
2022/07/16 01:32:11;;;;;;;0.85;0.40;;;21.80;52.80;;;;;;5091595;28;20033;-76
2022/07/16 01:34:37;;;;;;;0.60;0.10;;;21.80;52.80;;;;;;5090294;28;20498;-76
2022/07/16 01:37:06;;;;;;;0.50;0.20;;;21.80;52.90;;;;;;5090670;28;20040;-76
2022/07/16 01:39:38;;;;;;;0.60;0.30;;;21.80;52.90;;;;;;5090575;28;20435;-76
2022/07/16 01:42:06;;;;;;;0.98;0.20;;;21.80;52.90;;;;;;5090354;28;20044;-76
2022/07/16 01:44:34;;;;;;;0.70;0.28;;;21.80;52.90;;;;;;5090165;28;20044;-77
2022/07/16 01:47:01;;;;;;;0.68;0.20;;;21.80;52.90;;;;;;5090546;28;20496;-76
2022/07/16 01:49:32;;;;;;;0.65;0.30;;;21.80;52.90;;;;;;5091613;28;20491;-77
2022/07/16 01:52:02;;;;;;;0.65;0.30;;;21.70;53.00;;;;;;5089894;28;20098;-77
2022/07/16 01:54:28;;;;;;;0.60;0.20;;;21.80;53.00;;;;;;5090359;28;20124;-77
2022/07/16 01:56:53;;;;;;;0.57;0.20;;;21.80;53.10;;;;;;5091455;28;20601;-77
2022/07/16 01:59:19;;;;;;;1.27;0.40;;;21.80;53.10;;;;;;5091718;28;20150;-77
2022/07/16 02:01:44;;;;;;;0.70;0.20;;;21.80;53.20;;;;;;5093838;28;20047;-77
2022/07/16 02:04:13;;;;;;;1.02;0.30;;;21.70;53.10;;;;;;5094362;28;20436;-77
2022/07/16 02:06:38;;;;;;;3.05;0.25;;;21.80;53.30;;;;;;5094427;28;20132;-77
2022/07/16 02:09:04;;;;;;;0.90;0.20;;;21.70;53.20;;;;;;5093765;28;20036;-78
2022/07/16 02:11:30;;;;;;;0.65;0.20;;;21.70;53.30;;;;;;5093681;28;20202;-77
2022/07/16 02:13:55;;;;;;;1.13;0.28;;;21.70;53.30;;;;;;5093432;28;20044;-77
2022/07/16 02:16:21;;;;;;;0.93;0.20;;;21.70;53.40;;;;;;5094631;28;20047;-77
2022/07/16 02:18:46;;;;;;;0.50;0.17;;;21.70;53.30;;;;;;5093493;28;20123;-77
2022/07/16 02:21:12;;;;;;;0.80;0.20;;;21.70;53.40;;;;;;5094795;28;20118;-76
2022/07/16 02:23:38;;;;;;;0.80;0.20;;;21.70;53.40;;;;;;5093689;28;20479;-77
2022/07/16 02:26:03;;;;;;;0.50;0.20;;;21.70;53.50;;;;;;5093601;28;20071;-77
2022/07/16 02:28:29;;;;;;;0.52;0.20;;;21.70;53.50;;;;;;5093503;28;20071;-76
2022/07/16 02:30:54;;;;;;;0.70;0.28;;;21.70;53.50;;;;;;5093406;28;20049;-77
2022/07/16 02:33:21;;;;;;;0.50;0.20;;;21.70;53.50;;;;;;5093137;28;20077;-77
2022/07/16 02:35:49;;;;;;;0.50;0.20;;;21.70;53.60;;;;;;5093343;28;20115;-76
2022/07/16 02:38:15;;;;;;;0.82;0.25;;;21.70;53.60;;;;;;5093403;28;20032;-76
2022/07/16 02:40:42;;;;;;;0.57;0.17;;;21.70;53.70;;;;;;5093005;28;20085;-77
2022/07/16 02:43:09;;;;;;;1.23;0.20;;;21.70;53.70;;;;;;5093092;28;20055;-77
2022/07/16 02:45:37;;;;;;;1.55;0.30;;;21.70;53.80;;;;;;5093155;28;20395;-76
2022/07/16 02:48:04;;;;;;;0.60;0.20;;;21.70;53.80;;;;;;5092961;28;20055;-77
2022/07/16 02:50:30;;;;;;;0.47;0.20;;;21.70;53.80;;;;;;5094237;28;20040;-77
2022/07/16 02:52:56;;;;;;;2.60;0.20;;;21.70;53.90;;;;;;5093810;28;20112;-77
2022/07/16 02:55:22;;;;;;;1.13;0.20;;;21.70;53.90;;;;;;5092808;28;20500;-77
2022/07/16 02:57:48;;;;;;;0.45;0.20;;;21.70;53.90;;;;;;5092925;28;20044;-76
2022/07/16 03:00:16;;;;;;;1.33;0.10;;;21.60;53.90;;;;;;5092628;28;20071;-77
2022/07/16 03:02:42;;;;;;;0.60;0.20;;;21.60;54.00;;;;;;5092556;28;20632;-76
2022/07/16 03:05:09;;;;;;;0.70;0.20;;;21.60;54.00;;;;;;5091792;28;20044;-78
2022/07/16 03:07:34;;;;;;;0.70;0.20;;;21.60;54.10;;;;;;5092761;28;20180;-77
2022/07/16 03:10:00;;;;;;;0.70;0.20;;;21.60;54.10;;;;;;5093821;28;20036;-77
2022/07/16 03:12:28;;;;;;;0.85;0.28;;;21.60;54.10;;;;;;5092600;28;20475;-77
2022/07/16 03:14:57;;;;;;;0.90;0.15;;;21.70;54.20;;;;;;5091724;28;20032;-77
2022/07/16 03:17:23;;;;;;;0.40;0.10;;;21.60;54.20;;;;;;5092404;28;20047;-77
2022/07/16 03:19:49;;;;;;;1.52;0.20;;;21.60;54.20;;;;;;5092619;28;20424;-78
2022/07/16 03:22:16;;;;;;;0.45;0.15;;;21.60;54.20;;;;;;5093477;28;20036;-77
2022/07/16 03:24:41;;;;;;;1.08;0.10;;;21.60;54.30;;;;;;5093546;28;20089;-78
2022/07/16 03:27:07;;;;;;;0.38;0.10;;;21.60;54.30;;;;;;5092364;28;20476;-77
2022/07/16 03:29:33;;;;;;;0.40;0.10;;;21.60;54.40;;;;;;5092078;28;20391;-77
2022/07/16 03:32:02;;;;;;;1.33;0.10;;;21.60;55.20;;;;;;5091946;28;20062;-77
2022/07/16 03:34:32;;;;;;;0.57;0.20;;;21.60;54.50;;;;;;5092377;28;20454;-77
2022/07/16 03:36:58;;;;;;;0.47;0.10;;;21.60;54.50;;;;;;5092234;28;20094;-77
2022/07/16 03:39:23;;;;;;;1.48;0.20;;;21.60;54.50;;;;;;5092001;28;20395;-77
2022/07/16 03:41:49;;;;;;;0.60;0.10;;;21.60;54.60;;;;;;5092133;28;20035;-77
2022/07/16 03:44:15;;;;;;;0.30;0.20;;;21.60;54.60;;;;;;5092046;28;20408;-77
2022/07/16 03:46:41;;;;;;;0.57;0.10;;;21.60;54.60;;;;;;5092398;28;20036;-77
2022/07/16 03:49:07;;;;;;;0.90;0.30;;;21.60;54.70;;;;;;5091803;28;20123;-77
2022/07/16 03:51:34;;;;;;;0.57;0.10;;;21.60;54.70;;;;;;5091704;28;20505;-74
2022/07/16 03:54:00;;;;;;;1.33;0.10;;;21.60;54.80;;;;;;5092860;28;20420;-77
2022/07/16 03:56:26;;;;;;;1.02;0.20;;;21.60;54.80;;;;;;5091931;28;20161;-77
2022/07/16 03:58:52;;;;;;;0.47;0.10;;;21.60;54.80;;;;;;5091471;28;20448;-79
2022/07/16 04:01:18;;;;;;;0.77;0.20;;;21.50;54.80;;;;;;5091551;28;20048;-77
2022/07/16 04:03:44;;;;;;;0.43;0.15;;;21.60;55.60;;;;;;5091394;28;20071;-77
2022/07/16 04:06:09;;;;;;;0.60;0.30;;;21.50;54.80;;;;;;5091423;28;20128;-77
2022/07/16 04:08:35;;;;;;;2.00;0.20;;;21.50;54.80;;;;;;5091629;28;20051;-77
2022/07/16 04:11:02;;;;;;;0.20;0.10;;;21.50;54.90;;;;;;5091329;28;20127;-77
2022/07/16 04:13:29;;;;;;;0.50;0.13;;;21.60;54.90;;;;;;5091317;28;20060;-77
2022/07/16 04:15:54;;;;;;;1.35;0.47;;;21.50;54.90;;;;;;5091274;28;20044;-77
2022/07/16 04:18:20;;;;;;;1.08;0.52;;;21.50;55.00;;;;;;5091355;28;20054;-77
2022/07/16 04:20:47;;;;;;;1.02;0.15;;;21.50;54.90;;;;;;5091267;28;20040;-77
2022/07/16 04:23:13;;;;;;;1.25;0.35;;;21.50;55.00;;;;;;5092066;28;20044;-77
2022/07/16 04:25:38;;;;;;;1.13;0.20;;;21.50;55.00;;;;;;5091055;28;20050;-77
2022/07/16 04:28:04;;;;;;;1.00;0.15;;;21.50;55.00;;;;;;5091270;28;20048;-77
2022/07/16 04:30:33;;;;;;;0.45;0.10;;;21.50;55.00;;;;;;5090956;28;20043;-77
2022/07/16 04:32:59;;;;;;;0.82;0.10;;;21.50;55.00;;;;;;5090913;28;20044;-77
2022/07/16 04:35:24;;;;;;;0.47;0.10;;;21.50;55.10;;;;;;5092381;28;20046;-77
2022/07/16 04:37:50;;;;;;;0.30;0.05;;;21.50;55.10;;;;;;5091008;28;20028;-77
2022/07/16 04:40:16;;;;;;;0.63;0.10;;;21.50;55.10;;;;;;5092167;28;20036;-77
2022/07/16 04:42:43;;;;;;;0.30;0.10;;;21.50;55.10;;;;;;5091120;28;20040;-77
2022/07/16 04:45:11;;;;;;;0.60;0.15;;;21.50;55.10;;;;;;5090986;28;20080;-77
2022/07/16 04:47:40;;;;;;;0.90;0.20;;;21.50;55.10;;;;;;5090857;28;20046;-78
2022/07/16 04:50:09;;;;;;;0.68;0.10;;;21.50;55.10;;;;;;5090699;28;20122;-77
2022/07/16 04:52:35;;;;;;;0.60;0.20;;;21.50;55.20;;;;;;5090457;28;20048;-77
2022/07/16 04:55:01;;;;;;;2.22;0.20;;;21.50;55.10;;;;;;5091974;28;20046;-77
2022/07/16 04:57:27;;;;;;;0.25;0.10;;;21.50;55.20;;;;;;5091041;28;20036;-77
2022/07/16 04:59:53;;;;;;;0.73;0.20;;;21.50;55.20;;;;;;5090581;28;20395;-77
2022/07/16 05:05:06;;;;;;;1.73;0.20;;;21.50;55.20;;;;;;5090362;28;20044;-76
2022/07/16 05:07:31;;;;;;;0.77;0.10;;;21.40;55.20;;;;;;5091985;28;20044;-77
2022/07/16 05:09:57;;;;;;;1.83;0.10;;;21.50;55.30;;;;;;5090787;28;20135;-78
2022/07/16 05:12:23;;;;;;;1.10;0.30;;;21.40;55.20;;;;;;5091704;28;20411;-77
2022/07/16 05:14:51;;;;;;;0.95;0.20;;;21.40;55.20;;;;;;5090502;28;20373;-77
2022/07/16 05:17:17;;;;;;;0.43;0.10;;;21.40;55.20;;;;;;5090679;28;20039;-77
2022/07/16 05:19:43;;;;;;;0.80;0.10;;;21.40;55.20;;;;;;5092094;28;20032;-77
2022/07/16 05:22:08;;;;;;;1.15;0.20;;;21.40;55.20;;;;;;5092869;28;20381;-78
2022/07/16 05:24:36;;;;;;;0.95;0.30;;;21.40;55.20;;;;;;5092107;28;20080;-78
2022/07/16 05:27:02;;;;;;;1.20;0.10;;;21.40;55.20;;;;;;5091766;28;20040;-77
2022/07/16 05:29:27;;;;;;;1.75;0.20;;;21.40;55.20;;;;;;5090795;28;20056;-77
2022/07/16 05:31:53;;;;;;;0.80;0.10;;;21.40;55.20;;;;;;5090583;28;20042;-77
2022/07/16 05:34:22;;;;;;;1.35;0.20;;;21.40;55.20;;;;;;5091194;28;20170;-77
2022/07/16 05:36:47;;;;;;;0.65;0.10;;;21.40;55.30;;;;;;5094291;28;20050;-76
2022/07/16 05:39:16;;;;;;;0.50;0.10;;;21.40;55.30;;;;;;5094463;28;20121;-77
2022/07/16 05:41:41;;;;;;;0.57;0.10;;;21.40;55.30;;;;;;5094113;28;20495;-76
2022/07/16 05:44:07;;;;;;;0.70;0.10;;;21.40;55.20;;;;;;5094319;28;20059;-77
2022/07/16 05:46:33;;;;;;;0.90;0.20;;;21.40;55.20;;;;;;5094288;28;20207;-76
2022/07/16 05:48:58;;;;;;;0.60;0.10;;;21.40;55.20;;;;;;5094090;28;20040;-76
2022/07/16 05:51:24;;;;;;;1.27;0.10;;;21.40;55.20;;;;;;5093780;28;20062;-76
2022/07/16 05:53:50;;;;;;;1.00;0.30;;;21.40;55.20;;;;;;5094305;28;20048;-78
2022/07/16 05:56:15;;;;;;;0.80;0.20;;;21.30;55.10;;;;;;5094554;28;20387;-76
2022/07/16 05:58:41;;;;;;;1.60;0.20;;;21.40;55.10;;;;;;5095099;28;20451;-77
2022/07/16 06:01:07;;;;;;;0.95;0.40;;;21.40;55.10;;;;;;5093902;28;20031;-77
2022/07/16 06:03:32;;;;;;;0.28;0.10;;;21.40;55.10;;;;;;5093184;28;20043;-77
2022/07/16 06:05:58;;;;;;;0.82;0.15;;;21.40;55.00;;;;;;5094264;28;20058;-77
2022/07/16 06:08:23;;;;;;;0.75;0.10;;;21.40;55.00;;;;;;5093741;28;20039;-77
2022/07/16 06:10:49;;;;;;;1.45;0.20;;;21.30;55.00;;;;;;5093967;28;20047;-77
2022/07/16 06:13:15;;;;;;;2.65;0.20;;;21.40;55.00;;;;;;5093710;28;20044;-77
2022/07/16 06:15:41;;;;;;;1.75;0.38;;;21.40;54.90;;;;;;5093533;28;20055;-77
2022/07/16 06:18:06;;;;;;;0.95;0.10;;;21.40;54.90;;;;;;5093432;28;20044;-77
2022/07/16 06:20:32;;;;;;;0.60;0.10;;;21.30;54.80;;;;;;5093541;28;20033;-77
2022/07/16 06:22:58;;;;;;;0.22;0.10;;;21.40;54.90;;;;;;5110746;28;20051;-78
2022/07/16 06:25:24;;;;;;;1.10;0.13;;;21.30;54.70;;;;;;5093466;28;20044;-78
2022/07/16 06:27:50;;;;;;;1.33;0.17;;;21.40;54.80;;;;;;5093577;28;20083;-77
2022/07/16 06:30:21;;;;;;;1.85;0.30;;;21.30;54.70;;;;;;5093245;28;20569;-77
2022/07/16 06:32:47;;;;;;;0.50;0.10;;;21.30;54.70;;;;;;5094339;28;20458;-78
2022/07/16 06:35:13;;;;;;;0.77;0.10;;;21.30;54.60;;;;;;5093230;28;20036;-77
2022/07/16 06:37:39;;;;;;;1.90;0.30;;;21.40;54.70;;;;;;5093437;28;20032;-77
2022/07/16 06:40:06;;;;;;;0.90;0.20;;;21.40;54.60;;;;;;5093324;28;20383;-77
2022/07/16 06:42:32;;;;;;;0.65;0.22;;;21.30;54.60;;;;;;5076486;28;20391;-78
2022/07/16 06:44:58;;;;;;;1.48;0.20;;;21.30;54.50;;;;;;5093958;28;20487;-77
2022/07/16 06:47:24;;;;;;;2.90;0.13;;;21.30;54.50;;;;;;5092716;28;20082;-73
2022/07/16 06:49:49;;;;;;;4.07;0.30;;;21.30;54.50;;;;;;5094342;28;20036;-72
2022/07/16 06:52:15;;;;;;;4.22;0.20;;;21.40;54.70;;;;;;5092869;28;20047;-70
2022/07/16 06:54:41;;;;;;;3.10;0.20;;;21.40;54.90;;;;;;5093996;28;20511;-72
2022/07/16 06:57:06;;;;;;;4.20;0.13;;;21.40;55.00;;;;;;5109557;28;20039;-72
2022/07/16 06:59:32;;;;;;;2.53;0.10;;;21.50;55.00;;;;;;5091543;28;20121;-72
2022/07/16 07:02:01;;;;;;;4.15;0.65;;;21.50;54.90;;;;;;5091746;28;20085;-72
2022/07/16 07:04:26;;;;;;;2.92;0.52;;;21.50;54.90;;;;;;5089872;28;20039;-71
2022/07/16 07:06:55;;;;;;;5.38;0.30;;;21.60;54.90;;;;;;5091249;28;20662;-72
2022/07/16 07:09:20;;;;;;;1.85;0.15;;;21.50;54.80;;;;;;5090927;28;20040;-71
2022/07/16 07:11:46;;;;;;;2.75;0.45;;;21.60;54.80;;;;;;5091246;28;20038;-71
2022/07/16 07:14:12;;;;;;;2.00;0.20;;;21.60;54.80;;;;;;5092647;28;20418;-71
2022/07/16 07:16:38;;;;;;;2.38;0.20;;;21.60;54.90;;;;;;5125891;27;20484;-71
2022/07/16 07:19:04;;;;;;;3.60;0.30;;;21.60;54.90;;;;;;5091067;28;20115;-73
2022/07/16 07:21:29;;;;;;;1.35;0.20;;;21.60;54.80;;;;;;5090347;28;20395;-73
2022/07/16 07:23:55;;;;;;;1.17;0.10;;;21.70;54.70;;;;;;5093046;28;20127;-73
2022/07/16 07:26:21;;;;;;;1.77;0.25;;;21.60;54.60;;;;;;5092105;28;20044;-73
2022/07/16 07:28:47;;;;;;;1.85;0.15;;;21.70;54.60;;;;;;5091708;28;20040;-74
2022/07/16 07:31:12;;;;;;;3.97;0.20;;;21.70;54.60;;;;;;5091188;28;20128;-76
2022/07/16 07:33:39;;;;;;;1.77;0.20;;;21.70;54.50;;;;;;5091046;28;20032;-74
2022/07/16 07:36:05;;;;;;;3.17;0.20;;;21.70;54.50;;;;;;5091259;28;20067;-75
2022/07/16 07:38:31;;;;;;;1.75;0.20;;;21.70;54.40;;;;;;5125487;27;20085;-75
2022/07/16 07:40:58;;;;;;;7.15;0.35;;;21.80;54.40;;;;;;5092853;28;20612;-75
2022/07/16 07:43:27;;;;;;;3.08;0.30;;;21.80;55.20;;;;;;5125578;27;20040;-74
2022/07/16 07:45:52;;;;;;;2.75;0.10;;;21.80;54.50;;;;;;5092269;28;20657;-75
2022/07/16 07:48:18;;;;;;;4.38;0.30;;;21.80;54.30;;;;;;5090053;28;20111;-74
2022/07/16 07:50:44;;;;;;;5.57;1.05;;;21.80;54.30;;;;;;5091000;28;20449;-72
2022/07/16 07:53:10;;;;;;;2.25;0.17;;;21.80;54.30;;;;;;5090792;28;20052;-73
2022/07/16 07:55:36;;;;;;;3.13;0.20;;;21.90;54.30;;;;;;5092506;28;20054;-73
2022/07/16 07:58:03;;;;;;;0.82;0.10;;;21.90;54.30;;;;;;5090861;28;20033;-75
2022/07/16 08:00:28;;;;;;;1.58;0.70;;;21.90;54.10;;;;;;5090491;28;20533;-73
2022/07/16 08:02:55;;;;;;;1.33;0.10;;;21.90;54.10;;;;;;5092226;28;20088;-73
2022/07/16 08:05:21;;;;;;;6.20;0.20;;;21.90;54.00;;;;;;5091268;28;20395;-74
2022/07/16 08:07:47;;;;;;;7.95;0.45;;;21.90;53.90;;;;;;5089745;28;20051;-72
2022/07/16 08:10:13;;;;;;;3.30;0.20;;;22.00;53.80;;;;;;5091736;28;20044;-72
2022/07/16 08:12:39;;;;;;;5.80;0.25;;;22.00;53.70;;;;;;5092394;28;20046;-74
2022/07/16 08:15:06;;;;;;;2.40;0.10;;;22.00;53.60;;;;;;5091379;28;20075;-74
2022/07/16 08:17:32;;;;;;;2.28;0.10;;;22.10;53.60;;;;;;5090869;28;20434;-72
2022/07/16 08:19:58;;;;;;;3.38;0.30;;;22.10;53.40;;;;;;5090274;28;20039;-71
2022/07/16 08:22:23;;;;;;;6.13;0.63;;;22.10;53.30;;;;;;5091137;28;20036;-78
2022/07/16 08:27:35;;;;;;;0.93;0.10;;;22.20;53.30;;;;;;5090279;28;20067;-76
2022/07/16 08:30:01;;;;;;;5.22;0.22;;;22.10;53.10;;;;;;5090797;28;20054;-76
2022/07/16 08:32:27;;;;;;;5.32;0.10;;;22.10;53.00;;;;;;5106200;28;20036;-76
2022/07/16 08:34:53;;;;;;;4.30;0.80;;;22.10;53.00;;;;;;5089943;28;20546;-77
2022/07/16 08:37:33;;;;;;;1.85;0.10;;;22.10;53.00;;;;;;5090704;28;20040;-72
2022/07/16 08:39:59;;;;;;;1.13;0.10;;;22.10;53.00;;;;;;5090468;28;20426;-74
2022/07/16 08:42:26;;;;;;;1.00;0.10;;;22.10;53.10;;;;;;5090129;28;20059;-70
2022/07/16 08:44:52;;;;;;;7.85;0.43;;;22.10;53.10;;;;;;5086071;28;20051;-71
2022/07/16 08:47:19;;;;;;;6.88;0.38;;;22.20;53.00;;;;;;5090412;28;20124;-67
2022/07/16 08:49:45;;;;;;;6.97;0.30;;;22.20;53.00;;;;;;5092187;28;20085;-70
2022/07/16 08:52:12;;;;;;;8.13;0.50;;;22.20;52.90;;;;;;5089223;28;20132;-70
2022/07/16 08:54:39;;;;;;;7.75;0.70;;;22.20;52.70;;;;;;5090316;28;20044;-69
2022/07/16 08:57:05;;;;;;;11.60;0.28;;;22.20;52.80;;;;;;5091324;28;20089;-73
2022/07/16 08:59:32;;;;;;;6.40;0.60;;;22.20;52.70;;;;;;5090261;28;20051;-73
2022/07/16 09:01:57;;;;;;;7.43;0.38;;;22.20;52.60;;;;;;5106642;28;20119;-73
2022/07/16 09:04:26;;;;;;;6.47;0.20;;;22.20;52.40;;;;;;5089943;28;20115;-73
2022/07/16 09:06:51;;;;;;;2.97;0.20;;;22.20;52.30;;;;;;5090981;28;20063;-73
2022/07/16 09:09:19;;;;;;;9.13;0.65;;;22.20;52.10;;;;;;5092954;28;20040;-73
2022/07/16 09:11:46;;;;;;;5.88;0.43;;;22.20;52.00;;;;;;5094774;28;20044;-73
2022/07/16 09:14:14;;;;;;;3.40;0.32;;;22.20;51.90;;;;;;5095934;28;20048;-73
2022/07/16 09:16:43;;;;;;;4.85;0.63;;;22.20;51.80;;;;;;5094950;28;20043;-73
2022/07/16 09:19:12;;;;;;;2.67;0.20;;;22.20;51.50;;;;;;5094848;28;20040;-73
2022/07/16 09:24:42;;;;;;;1.75;0.20;;;22.10;50.90;;;;;;5130226;27;20794;-71
2022/07/16 09:29:58;;;;;;;4.32;0.45;;;22.20;50.80;;;;;;5109785;27;20354;-71
2022/07/16 09:32:27;;;;;;;2.97;0.40;;;22.20;50.60;;;;;;5091605;28;20511;-71
2022/07/16 09:35:04;;;;;;;1.37;0.10;;;22.20;50.50;;;;;;5091695;28;20040;-71
2022/07/16 09:37:54;;;;;;;1.83;0.15;;;22.20;50.30;;;;;;5091392;28;20564;-72
2022/07/16 09:43:22;;;;;;;2.03;0.10;;;22.20;50.00;;;;;;5130209;27;20411;-71
2022/07/16 09:45:55;;;;;;;2.38;0.30;;;22.20;50.20;;;;;;5128980;27;20048;-71
2022/07/16 09:54:00;;;;;;;1.63;0.22;;;22.20;49.80;;;;;;5130245;27;20913;-71
2022/07/16 09:56:27;;;;;;;2.75;0.20;;;22.20;49.90;;;;;;5129015;28;20073;-71
2022/07/16 09:58:55;;;;;;;0.82;0.20;;;22.10;49.90;;;;;;5129256;28;20395;-71
2022/07/16 10:01:22;;;;;;;1.90;0.10;;;22.10;49.90;;;;;;5128882;27;20039;-71
2022/07/16 10:03:49;;;;;;;2.38;0.10;;;22.20;49.90;;;;;;5128381;27;20082;-71
2022/07/16 10:06:16;;;;;;;1.23;0.10;;;22.20;50.70;;;;;;5129205;28;20041;-71
2022/07/16 10:08:43;;;;;;;1.55;0.10;;;22.20;49.90;;;;;;5129451;28;20042;-71
2022/07/16 10:11:10;;;;;;;2.75;0.20;;;22.20;49.50;;;;;;5129067;28;20451;-71
2022/07/16 10:13:37;;;;;;;2.30;0.10;;;22.20;49.40;;;;;;5128618;28;20047;-71
2022/07/16 10:16:04;;;;;;;1.02;0.28;;;22.20;49.40;;;;;;5128846;28;20491;-71
2022/07/16 10:18:39;;;;;;;0.60;0.10;;;22.10;49.30;;;;;;5128617;28;20074;-71
2022/07/16 10:21:12;;;;;;;1.13;0.10;;;22.20;49.30;;;;;;5128374;27;20032;-71
2022/07/16 10:23:40;;;;;;;2.25;0.13;;;22.10;49.20;;;;;;5128789;28;20519;-72
2022/07/16 10:26:15;;;;;;;1.17;0.10;;;22.10;49.30;;;;;;5128380;28;20047;-71
2022/07/16 10:28:46;;;;;;;2.28;0.30;;;22.10;49.20;;;;;;5128401;28;20055;-71
2022/07/16 10:36:55;;;;;;;0.20;0.10;;;22.10;49.20;;;;;;5130236;27;20358;-71
2022/07/16 10:39:24;;;;;;;0.93;0.17;;;22.10;49.20;;;;;;5128976;28;20043;-71
2022/07/16 10:41:55;;;;;;;1.08;0.10;;;22.10;49.20;;;;;;5129243;28;20043;-71
2022/07/16 10:44:24;;;;;;;0.98;0.10;;;22.10;49.20;;;;;;5128751;27;20039;-71
2022/07/16 10:47:05;;;;;;;0.38;0.10;;;22.10;49.30;;;;;;5128899;28;20040;-71
2022/07/16 10:49:31;;;;;;;2.85;0.20;;;22.10;49.20;;;;;;5128874;28;20040;-71
2022/07/16 10:54:39;;;;;;;0.68;0.20;;;22.10;49.20;;;;;;5110291;27;20355;-71
2022/07/16 10:57:08;;;;;;;0.40;0.10;;;22.10;49.30;;;;;;5108599;28;20052;-71
2022/07/16 10:59:37;;;;;;;1.35;0.10;;;22.10;49.20;;;;;;5108491;28;20142;-71
2022/07/16 11:02:08;;;;;;;0.90;0.03;;;22.10;49.30;;;;;;5108606;28;20058;-71
2022/07/16 11:04:43;;;;;;;1.58;0.00;;;22.10;49.40;;;;;;5108377;28;20088;-71
2022/07/16 11:07:15;;;;;;;1.35;0.15;;;22.10;49.30;;;;;;5108318;28;20079;-71
2022/07/16 11:09:43;;;;;;;0.70;0.03;;;22.10;49.20;;;;;;5108289;28;20495;-72
2022/07/16 11:14:53;;;;;;;0.90;0.13;;;22.10;49.30;;;;;;5130439;27;20411;-71
2022/07/16 11:17:21;;;;;;;0.77;0.10;;;22.00;49.20;;;;;;5128981;28;20126;-71
2022/07/16 11:19:50;;;;;;;0.88;0.10;;;22.10;49.20;;;;;;5128670;28;20487;-72
2022/07/16 11:22:17;;;;;;;1.85;0.10;;;22.10;49.20;;;;;;5129073;27;20038;-71
2022/07/16 11:24:47;;;;;;;0.88;0.10;;;22.00;49.10;;;;;;5128946;27;20050;-71
2022/07/16 11:27:14;;;;;;;0.85;0.05;;;22.00;49.30;;;;;;5129177;28;20387;-71
2022/07/16 11:29:39;;;;;;;2.92;0.10;;;22.00;49.30;;;;;;5128749;28;20039;-71
2022/07/16 11:32:15;;;;;;;1.15;0.10;;;22.00;49.20;;;;;;5130034;28;20138;-71
2022/07/16 11:34:41;;;;;;;1.60;0.10;;;22.00;49.20;;;;;;5128568;28;20400;-71
2022/07/16 11:37:07;;;;;;;1.08;0.10;;;22.00;49.30;;;;;;5128504;28;20043;-71
2022/07/16 11:39:38;;;;;;;2.13;0.10;;;22.00;49.30;;;;;;5128721;27;20055;-72
2022/07/16 11:42:04;;;;;;;0.80;0.10;;;22.00;49.30;;;;;;5128890;28;20042;-71
2022/07/16 11:44:32;;;;;;;0.95;0.10;;;22.00;49.20;;;;;;5129809;28;20363;-71
2022/07/16 11:47:01;;;;;;;1.35;0.30;;;22.00;49.30;;;;;;5128509;27;20040;-71
2022/07/16 11:54:56;;;;;;;0.20;0.00;;;22.00;49.30;;;;;;5130305;27;20180;-71
2022/07/16 11:57:22;;;;;;;1.00;0.38;;;22.00;49.30;;;;;;5129249;27;20075;-71
2022/07/16 11:59:52;;;;;;;0.35;0.08;;;22.00;49.10;;;;;;5128896;28;20541;-71
2022/07/16 12:02:21;;;;;;;1.48;0.10;;;22.00;49.10;;;;;;5128976;28;20039;-72
2022/07/16 12:04:56;;;;;;;0.40;0.03;;;22.00;49.00;;;;;;5129064;28;20049;-71
2022/07/16 12:10:07;;;;;;;1.02;0.10;;;22.00;49.00;;;;;;5110250;27;20359;-71
2022/07/16 12:12:36;;;;;;;0.80;0.00;;;22.00;49.00;;;;;;5108686;28;20395;-71
2022/07/16 12:15:07;;;;;;;1.48;0.10;;;22.00;49.10;;;;;;5108329;28;20051;-71
2022/07/16 12:17:36;;;;;;;1.38;0.20;;;22.00;49.00;;;;;;5108464;28;20043;-71
2022/07/16 12:20:25;;;;;;;1.30;0.10;;;21.90;48.90;;;;;;5091623;28;20031;-71
2022/07/16 12:25:45;;;;;;;1.05;0.10;;;22.00;48.90;;;;;;5089426;28;20417;-71
2022/07/16 12:33:30;;;;;;;0.77;0.10;;;22.00;49.00;;;;;;5130308;27;20358;-72
2022/07/16 12:44:04;;;;;;;0.57;0.10;;;22.00;49.10;;;;;;5130275;27;20354;-71
2022/07/16 12:46:33;;;;;;;1.48;0.00;;;22.00;49.00;;;;;;5130559;27;20082;-71
2022/07/16 12:51:41;;;;;;;0.43;0.10;;;22.00;49.00;;;;;;5130313;27;20403;-71
2022/07/16 12:54:08;;;;;;;0.77;0.00;;;22.00;49.00;;;;;;5129272;28;20134;-71
2022/07/16 12:59:22;;;;;;;0.38;0.00;;;22.00;49.00;;;;;;5128802;27;20051;-71
2022/07/16 13:01:48;;;;;;;0.88;0.10;;;22.00;49.00;;;;;;5146441;27;20104;-71
2022/07/16 13:04:14;;;;;;;2.00;0.30;;;22.00;49.00;;;;;;5128786;28;20122;-71
2022/07/16 13:06:40;;;;;;;1.27;0.10;;;22.00;49.00;;;;;;5129017;27;20035;-73
2022/07/16 13:09:07;;;;;;;0.60;0.10;;;22.00;49.10;;;;;;5128924;27;20562;-71
2022/07/16 13:11:35;;;;;;;3.33;0.10;;;22.00;49.00;;;;;;5128961;28;20043;-71
2022/07/16 13:14:01;;;;;;;1.95;0.10;;;22.00;49.00;;;;;;5129984;27;20114;-71
2022/07/16 13:16:27;;;;;;;0.82;0.10;;;22.00;49.00;;;;;;5128502;28;20035;-72
2022/07/16 13:18:55;;;;;;;0.88;0.10;;;22.00;49.00;;;;;;5128544;27;20043;-71
2022/07/16 13:21:22;;;;;;;0.93;0.20;;;22.10;49.00;;;;;;5128508;28;20134;-71
2022/07/16 13:23:50;;;;;;;0.88;0.10;;;22.00;48.90;;;;;;5128646;27;20047;-71
2022/07/16 13:26:16;;;;;;;1.20;0.30;;;22.00;49.00;;;;;;5129656;27;20067;-71
2022/07/16 13:28:42;;;;;;;1.23;0.10;;;22.00;48.90;;;;;;5128344;28;20035;-71
2022/07/16 13:31:11;;;;;;;0.95;0.20;;;22.00;48.80;;;;;;5128224;28;20044;-71
2022/07/16 13:33:37;;;;;;;1.02;0.10;;;22.00;48.80;;;;;;5128568;28;20050;-71
2022/07/16 13:36:03;;;;;;;1.60;0.13;;;22.00;48.80;;;;;;5128220;28;20490;-71
2022/07/16 13:38:29;;;;;;;0.45;0.10;;;22.00;48.80;;;;;;5128124;28;20764;-72
2022/07/16 13:40:55;;;;;;;0.85;0.10;;;22.00;48.80;;;;;;5128075;28;20039;-72
2022/07/16 13:43:21;;;;;;;1.70;0.10;;;22.00;48.80;;;;;;5129460;27;20108;-71
2022/07/16 13:45:47;;;;;;;1.08;0.38;;;22.00;48.80;;;;;;5128060;28;20050;-71
2022/07/16 13:48:16;;;;;;;1.20;0.25;;;22.00;48.60;;;;;;5128255;27;20554;-71
2022/07/16 13:50:42;;;;;;;1.10;0.20;;;22.00;48.70;;;;;;5127583;28;20039;-72